Weather at Nanga Mawong Airstrip

Public forecast

Using degrees Celsius for public forecast. Weather courtesy of forecast.io.

Closest aviation weather report (METAR) to Nanga Mawong Airstrip

Closest report is Simanggang Airport, 112.0 nm (207.5 km) NNW.

(retrieved 0 seconds ago)

Closest aviation forecast (TAF) to Nanga Mawong Airstrip

Closest forecast is Kuching International Airport, 165.3 nm (306.2 km) NW.

2024/07/17 18:08 (retrieved 2 hours ago)

TAF WBGG 171700Z 1718/1818 VRB03KT 9999 FEW016